Malaviya Twenty — AUEV — position and weather

sailwx.info

Track history (hours):
 
Tides and Currents Weather Stations Pressure Air Temp Water Temp Dewpoint Dewpoint Depression Visibility Wind Speed Wind Dir Waves Ship Positions

Malaviya Twenty

Last reported at 2014-Sep-23 15:33 UTC. Time now 2014-Sep-23 16:22 UTC.
Position N 52°36' E 001°44'.

Length 72 m; draft 4.1 m.

Type: Ship. MMSI: 419504000.

Date/timePositionNaut miles runAvg speedWind from/ knotsBaromVisibWave heightAir tempDewpointWater temp
2014-Sep-23 15:33N 52°36' E 001°44'0 0.0
2014-Sep-23 14:33N 52°36' E 001°44'1 1.0
2014-Sep-23 13:33N 52°35' E 001°44'5 4.6
2014-Sep-23 12:33N 52°39' E 001°46'8 7.8
2014-Sep-23 11:33N 52°46' E 001°52'10 9.6
2014-Sep-23 10:33N 52°54' E 002°01'12 9.3
2014-Sep-23 09:19N 53°02' E 002°14'1 1.4
2014-Sep-23 08:33N 53°03' E 002°14'0 0.0
2014-Sep-23 07:33N 53°03' E 002°14'0 0.0
2014-Sep-23 06:29N 53°03' E 002°14'0 0.3
2014-Sep-23 05:13N 53°03' E 002°14'1 1.5
2014-Sep-23 04:31N 53°02' E 002°14'1 0.8
2014-Sep-23 03:31N 53°02' E 002°14'3 2.3
2014-Sep-23 02:23N 52°60' E 002°14'1 0.8
2014-Sep-23 01:31N 53°00' E 002°14'1 0.9
2014-Sep-23 00:33N 53°01' E 002°14'  
2014-Sep-20 18:03N 53°03' E 002°14'0 0.0
2014-Sep-20 17:27N 53°03' E 002°14'0 0.0
2014-Sep-20 16:33N 53°03' E 002°14'1 0.5
2014-Sep-20 14:24N 53°02' E 002°15'0 0.3
2014-Sep-20 13:33N 53°02' E 002°14'0 0.2
2014-Sep-20 12:33N 53°02' E 002°14'0 0.0
2014-Sep-20 11:32N 53°02' E 002°14'2 1.8
2014-Sep-20 10:17N 52°60' E 002°14'0 0.3
2014-Sep-20 09:30N 52°60' E 002°14'3 0.5
2014-Sep-20 03:33N 53°02' E 002°14'1 0.5
2014-Sep-20 01:31N 53°01' E 002°14'1 1.0
2014-Sep-20 00:30N 53°02' E 002°14'2 2.3
2014-Sep-19 23:32N 53°00' E 002°14'0 0.3
2014-Sep-19 22:33N 53°00' E 002°14'1 1.0
2014-Sep-19 21:33N 53°01' E 002°14'2 2.3
2014-Sep-19 20:33N 52°59' E 002°13'9 8.8
2014-Sep-19 19:33N 52°54' E 002°01'9 8.8
2014-Sep-19 18:33N 52°47' E 001°53'8 8.4
2014-Sep-19 17:33N 52°39' E 001°46'4 4.4
2014-Sep-19 16:33N 52°35' E 001°44'0 0.3
2014-Sep-19 15:31N 52°36' E 001°44'0 0.0
2014-Sep-19 14:31N 52°36' E 001°44'0 0.0
2014-Sep-19 13:31N 52°36' E 001°44'0 0.0
2014-Sep-19 12:31N 52°36' E 001°44'1 1.4
2014-Sep-19 11:34N 52°34' E 001°45'7 6.7
2014-Sep-19 10:34N 52°41' E 001°46'6 5.8
2014-Sep-19 09:34N 52°47' E 001°43'8 7.6
2014-Sep-19 08:34N 52°53' E 001°36'9 8.7
2014-Sep-19 07:34N 53°00' E 001°29'9 8.7
2014-Sep-19 06:34N 53°09' E 001°28'11 9.0
2014-Sep-19 05:20N 53°20' E 001°28'15 1.0
2014-Sep-18 14:18N 53°33' E 001°14'1 1.3
2014-Sep-18 13:31N 53°33' E 001°13'8 3.9
2014-Sep-18 11:26N 53°41' E 001°09'1 0.7
2014-Sep-18 10:25N 53°40' E 001°09'1 0.7
2014-Sep-18 09:34N 53°41' E 001°09'0 0.0
2014-Sep-18 08:34N 53°41' E 001°09'1 0.5
2014-Sep-18 07:33N 53°41' E 001°08'2 0.3
2014-Sep-18 01:26N 53°42' E 001°09'1 1.2
2014-Sep-18 00:22N 53°41' E 001°10'0 0.2
2014-Sep-17 21:33N 53°41' E 001°10'1 0.5
2014-Sep-17 20:12N 53°40' E 001°10'22 1.0
2014-Sep-16 22:33N 53°21' E 001°28'8 8.0
2014-Sep-16 21:33N 53°13' E 001°28'8 8.3
2014-Sep-16 20:34N 53°05' E 001°28'9 9.5
2014-Sep-16 19:34N 52°56' E 001°33'1212.1
2014-Sep-16 18:34N 52°46' E 001°44'1111.2
2014-Sep-16 17:34N 52°35' E 001°46'1 1.4
2014-Sep-16 16:32N 52°35' E 001°44'0 0.0
2014-Sep-16 15:32N 52°35' E 001°44'0 0.0
2014-Sep-16 14:32N 52°35' E 001°44'0 0.0
2014-Sep-16 13:32N 52°35' E 001°44'0 0.0
2014-Sep-16 12:32N 52°35' E 001°44'0 0.4
2014-Sep-16 11:32N 52°36' E 001°44'0 0.3
2014-Sep-16 10:32N 52°36' E 001°44'0 0.0
2014-Sep-16 09:32N 52°36' E 001°44'0 0.0
2014-Sep-16 08:32N 52°36' E 001°44'0 0.0
2014-Sep-16 07:32N 52°36' E 001°44'0 0.0
2014-Sep-16 06:32N 52°36' E 001°44'0 0.0
2014-Sep-16 05:32N 52°36' E 001°44'0 0.0
2014-Sep-16 04:32N 52°36' E 001°44'0 0.0
2014-Sep-16 03:32N 52°36' E 001°44'0 0.0
2014-Sep-16 02:32N 52°36' E 001°44'0 0.0
2014-Sep-16 01:32N 52°36' E 001°44'0 0.0
2014-Sep-16 00:32N 52°36' E 001°44'0 0.0
2014-Sep-15 23:32N 52°36' E 001°44'0 0.0
2014-Sep-15 22:32N 52°36' E 001°44'0 0.0
2014-Sep-15 21:32N 52°36' E 001°44'0 0.0
2014-Sep-15 20:32N 52°36' E 001°44'0 0.0
2014-Sep-15 19:32N 52°36' E 001°44'0 0.0
2014-Sep-15 18:32N 52°36' E 001°44'0 0.0
2014-Sep-15 17:32N 52°36' E 001°44'0 0.0
2014-Sep-15 16:32N 52°36' E 001°44'0 0.0
2014-Sep-15 15:32N 52°36' E 001°44'0 0.0
2014-Sep-15 14:32N 52°36' E 001°44'0 0.0
2014-Sep-15 13:32N 52°36' E 001°44'1 0.7
2014-Sep-15 12:32N 52°35' E 001°44'0 0.0
2014-Sep-15 11:32N 52°35' E 001°44'0 0.0
2014-Sep-15 10:32N 52°35' E 001°44'0 0.0
2014-Sep-15 09:32N 52°35' E 001°44'0 0.0
2014-Sep-15 08:32N 52°35' E 001°44'0 0.0
2014-Sep-15 07:32N 52°35' E 001°44'0 0.0
2014-Sep-15 06:32N 52°35' E 001°44'0 0.0
2014-Sep-15 05:32N 52°35' E 001°44'1 1.3
2014-Sep-15 04:33N 52°36' E 001°46'5 5.4
2014-Sep-15 03:33N 52°41' E 001°46'6 5.6
2014-Sep-15 02:34N 52°46' E 001°43'8 7.9
2014-Sep-15 01:33N 52°53' E 001°36'8 8.5
2014-Sep-15 00:33N 53°01' E 001°29'9 9.4
2014-Sep-14 23:33N 53°10' E 001°28'28 1.1
2014-Sep-13 21:33N 53°03' E 002°14'1 0.3
2014-Sep-13 19:33N 53°03' E 002°14'0 0.1
2014-Sep-13 18:30N 53°03' E 002°14'0 0.4
2014-Sep-13 17:33N 53°02' E 002°14'0 0.5
2014-Sep-13 16:33N 53°03' E 002°14'  
Track history (hours):
 
Tides and Currents Weather Stations Pressure Air Temp Water Temp Dewpoint Dewpoint Depression Visibility Wind Speed Wind Dir Waves Ship Positions

Malaviya Twenty

Last reported at 2014-Sep-23 15:33 UTC. Time now 2014-Sep-23 16:22 UTC.
Position N 52°36' E 001°44'.

Length 72 m; draft 4.1 m.

Type: Ship. MMSI: 419504000.

Date/timePositionNaut miles runAvg speedWind from/ knotsBaromVisibWave heightAir tempDewpointWater temp
2014-Sep-23 15:33N 52°36' E 001°44'0 0.0
2014-Sep-23 14:33N 52°36' E 001°44'1 1.0
2014-Sep-23 13:33N 52°35' E 001°44'5 4.6
2014-Sep-23 12:33N 52°39' E 001°46'8 7.8
2014-Sep-23 11:33N 52°46' E 001°52'10 9.6
2014-Sep-23 10:33N 52°54' E 002°01'12 9.3
2014-Sep-23 09:19N 53°02' E 002°14'1 1.4
2014-Sep-23 08:33N 53°03' E 002°14'0 0.0
2014-Sep-23 07:33N 53°03' E 002°14'0 0.0
2014-Sep-23 06:29N 53°03' E 002°14'0 0.3
2014-Sep-23 05:13N 53°03' E 002°14'1 1.5
2014-Sep-23 04:31N 53°02' E 002°14'1 0.8
2014-Sep-23 03:31N 53°02' E 002°14'3 2.3
2014-Sep-23 02:23N 52°60' E 002°14'1 0.8
2014-Sep-23 01:31N 53°00' E 002°14'1 0.9
2014-Sep-23 00:33N 53°01' E 002°14'  
2014-Sep-20 18:03N 53°03' E 002°14'0 0.0
2014-Sep-20 17:27N 53°03' E 002°14'0 0.0
2014-Sep-20 16:33N 53°03' E 002°14'1 0.5
2014-Sep-20 14:24N 53°02' E 002°15'0 0.3
2014-Sep-20 13:33N 53°02' E 002°14'0 0.2
2014-Sep-20 12:33N 53°02' E 002°14'0 0.0
2014-Sep-20 11:32N 53°02' E 002°14'2 1.8
2014-Sep-20 10:17N 52°60' E 002°14'0 0.3
2014-Sep-20 09:30N 52°60' E 002°14'3 0.5
2014-Sep-20 03:33N 53°02' E 002°14'1 0.5
2014-Sep-20 01:31N 53°01' E 002°14'1 1.0
2014-Sep-20 00:30N 53°02' E 002°14'2 2.3
2014-Sep-19 23:32N 53°00' E 002°14'0 0.3
2014-Sep-19 22:33N 53°00' E 002°14'1 1.0
2014-Sep-19 21:33N 53°01' E 002°14'2 2.3
2014-Sep-19 20:33N 52°59' E 002°13'9 8.8
2014-Sep-19 19:33N 52°54' E 002°01'9 8.8
2014-Sep-19 18:33N 52°47' E 001°53'8 8.4
2014-Sep-19 17:33N 52°39' E 001°46'4 4.4
2014-Sep-19 16:33N 52°35' E 001°44'0 0.3
2014-Sep-19 15:31N 52°36' E 001°44'0 0.0
2014-Sep-19 14:31N 52°36' E 001°44'0 0.0
2014-Sep-19 13:31N 52°36' E 001°44'0 0.0
2014-Sep-19 12:31N 52°36' E 001°44'1 1.4
2014-Sep-19 11:34N 52°34' E 001°45'7 6.7
2014-Sep-19 10:34N 52°41' E 001°46'6 5.8
2014-Sep-19 09:34N 52°47' E 001°43'8 7.6
2014-Sep-19 08:34N 52°53' E 001°36'9 8.7
2014-Sep-19 07:34N 53°00' E 001°29'9 8.7
2014-Sep-19 06:34N 53°09' E 001°28'11 9.0
2014-Sep-19 05:20N 53°20' E 001°28'15 1.0
2014-Sep-18 14:18N 53°33' E 001°14'1 1.3
2014-Sep-18 13:31N 53°33' E 001°13'8 3.9
2014-Sep-18 11:26N 53°41' E 001°09'1 0.7
2014-Sep-18 10:25N 53°40' E 001°09'1 0.7
2014-Sep-18 09:34N 53°41' E 001°09'0 0.0
2014-Sep-18 08:34N 53°41' E 001°09'1 0.5
2014-Sep-18 07:33N 53°41' E 001°08'2 0.3
2014-Sep-18 01:26N 53°42' E 001°09'1 1.2
2014-Sep-18 00:22N 53°41' E 001°10'0 0.2
2014-Sep-17 21:33N 53°41' E 001°10'1 0.5
2014-Sep-17 20:12N 53°40' E 001°10'22 1.0
2014-Sep-16 22:33N 53°21' E 001°28'8 8.0
2014-Sep-16 21:33N 53°13' E 001°28'8 8.3
2014-Sep-16 20:34N 53°05' E 001°28'9 9.5
2014-Sep-16 19:34N 52°56' E 001°33'1212.1
2014-Sep-16 18:34N 52°46' E 001°44'1111.2
2014-Sep-16 17:34N 52°35' E 001°46'1 1.4
2014-Sep-16 16:32N 52°35' E 001°44'0 0.0
2014-Sep-16 15:32N 52°35' E 001°44'0 0.0
2014-Sep-16 14:32N 52°35' E 001°44'0 0.0
2014-Sep-16 13:32N 52°35' E 001°44'0 0.0
2014-Sep-16 12:32N 52°35' E 001°44'0 0.4
2014-Sep-16 11:32N 52°36' E 001°44'0 0.3
2014-Sep-16 10:32N 52°36' E 001°44'0 0.0
2014-Sep-16 09:32N 52°36' E 001°44'0 0.0
2014-Sep-16 08:32N 52°36' E 001°44'0 0.0
2014-Sep-16 07:32N 52°36' E 001°44'0 0.0
2014-Sep-16 06:32N 52°36' E 001°44'0 0.0
2014-Sep-16 05:32N 52°36' E 001°44'0 0.0
2014-Sep-16 04:32N 52°36' E 001°44'0 0.0
2014-Sep-16 03:32N 52°36' E 001°44'0 0.0
2014-Sep-16 02:32N 52°36' E 001°44'0 0.0
2014-Sep-16 01:32N 52°36' E 001°44'0 0.0
2014-Sep-16 00:32N 52°36' E 001°44'0 0.0
2014-Sep-15 23:32N 52°36' E 001°44'0 0.0
2014-Sep-15 22:32N 52°36' E 001°44'0 0.0
2014-Sep-15 21:32N 52°36' E 001°44'0 0.0
2014-Sep-15 20:32N 52°36' E 001°44'0 0.0
2014-Sep-15 19:32N 52°36' E 001°44'0 0.0
2014-Sep-15 18:32N 52°36' E 001°44'0 0.0
2014-Sep-15 17:32N 52°36' E 001°44'0 0.0
2014-Sep-15 16:32N 52°36' E 001°44'0 0.0
2014-Sep-15 15:32N 52°36' E 001°44'0 0.0
2014-Sep-15 14:32N 52°36' E 001°44'0 0.0
2014-Sep-15 13:32N 52°36' E 001°44'1 0.7
2014-Sep-15 12:32N 52°35' E 001°44'0 0.0
2014-Sep-15 11:32N 52°35' E 001°44'0 0.0
2014-Sep-15 10:32N 52°35' E 001°44'0 0.0
2014-Sep-15 09:32N 52°35' E 001°44'0 0.0
2014-Sep-15 08:32N 52°35' E 001°44'0 0.0
2014-Sep-15 07:32N 52°35' E 001°44'0 0.0
2014-Sep-15 06:32N 52°35' E 001°44'0 0.0
2014-Sep-15 05:32N 52°35' E 001°44'1 1.3
2014-Sep-15 04:33N 52°36' E 001°46'5 5.4
2014-Sep-15 03:33N 52°41' E 001°46'6 5.6
2014-Sep-15 02:34N 52°46' E 001°43'8 7.9
2014-Sep-15 01:33N 52°53' E 001°36'8 8.5
2014-Sep-15 00:33N 53°01' E 001°29'9 9.4
2014-Sep-14 23:33N 53°10' E 001°28'28 1.1
2014-Sep-13 21:33N 53°03' E 002°14'1 0.3
2014-Sep-13 19:33N 53°03' E 002°14'0 0.1
2014-Sep-13 18:30N 53°03' E 002°14'0 0.4
2014-Sep-13 17:33N 53°02' E 002°14'0 0.5
2014-Sep-13 16:33N 53°03' E 002°14'  

Dump ship's entire track history